Time;durP1;ratioP1;P1;durP2;ratioP2;P2;SDS_P1;SDS_P2;PMS_P1;PMS_P2;Temp;Humidity;BMP_temperature;BMP_pressure;BME280_temperature;BME280_humidity;BME280_pressure;Samples;Min_cycle;Max_cycle;Signal;HPM_P1;HPM_P2
2023/05/12 00:02:00;;;;;;;25.10;11.77;;;;;;;12.19;100.00;99530.03;12221827;19;20007;-88
2023/05/12 00:06:03;;;;;;;32.85;14.02;;;;;;;12.20;100.00;99534.47;12221268;19;20345;-87
2023/05/12 00:10:10;;;;;;;27.90;12.00;;;;;;;12.20;100.00;99537.25;12199088;19;20523;-88
2023/05/12 00:14:21;;;;;;;28.27;12.10;;;;;;;12.17;100.00;99534.19;12222890;19;20386;-88
2023/05/12 00:18:30;;;;;;;33.78;13.27;;;;;;;12.18;100.00;99533.09;12204623;19;20011;-89
2023/05/12 00:22:36;;;;;;;34.60;13.10;;;;;;;12.20;100.00;99531.72;12223500;19;20460;-88
2023/05/12 00:26:42;;;;;;;31.27;12.63;;;;;;;12.20;100.00;99526.19;12227168;19;20482;-88
2023/05/12 00:30:47;;;;;;;30.85;13.02;;;;;;;12.22;100.00;99535.03;12203432;19;20367;-88
2023/05/12 00:34:51;;;;;;;;;;;;;;;12.20;100.00;99536.41;12218932;19;20407;-89
2023/05/12 00:39:02;;;;;;;27.08;11.10;;;;;;;12.19;100.00;99524.50;12221600;19;19942;-90
2023/05/12 00:43:05;;;;;;;27.45;10.85;;;;;;;12.16;100.00;99533.34;12199261;19;20454;-87
2023/05/12 00:47:11;;;;;;;;;;;;;;;12.07;100.00;99527.47;12222906;19;20022;-89
2023/05/12 00:51:15;;;;;;;29.27;11.15;;;;;;;12.06;100.00;99522.22;12224399;19;19966;-88
2023/05/12 00:55:20;;;;;;;25.30;10.50;;;;;;;12.03;100.00;99525.53;12201470;19;20018;-88
2023/05/12 00:59:30;;;;;;;31.25;10.82;;;;;;;12.02;100.00;99521.94;12222278;19;20010;-88
2023/05/12 01:03:36;;;;;;;24.52;10.85;;;;;;;12.00;100.00;99526.06;12200970;19;20015;-88
2023/05/12 01:07:51;;;;;;;21.58;9.95;;;;;;;11.95;100.00;99515.81;12223671;19;20333;-88
2023/05/12 01:12:01;;;;;;;25.45;10.38;;;;;;;11.91;100.00;99517.44;12223888;19;20022;-89
2023/05/12 01:16:12;;;;;;;30.65;10.73;;;;;;;11.88;100.00;99512.44;12198215;19;20010;-88
2023/05/12 01:20:24;;;;;;;28.27;10.38;;;;;;;11.88;100.00;99517.97;12217602;19;20070;-90
2023/05/12 01:24:35;;;;;;;25.35;11.02;;;;;;;11.89;100.00;99516.03;12194274;19;20367;-88
2023/05/12 01:28:40;;;;;;;25.80;10.10;;;;;;;11.90;100.00;99513.03;12218150;19;20353;-90
2023/05/12 01:32:49;;;;;;;31.02;11.00;;;;;;;11.93;100.00;99511.63;12216802;19;20494;-91
2023/05/12 01:36:52;;;;;;;26.55;11.48;;;;;;;11.91;100.00;99511.91;12198015;19;20007;-90
2023/05/12 01:40:57;;;;;;;29.13;11.27;;;;;;;11.93;100.00;99511.63;12218005;19;20059;-91
2023/05/12 01:45:00;;;;;;;34.13;11.48;;;;;;;11.95;100.00;99515.81;12217401;19;20015;-88
2023/05/12 01:49:07;;;;;;;26.85;11.57;;;;;;;11.97;100.00;99518.31;12194552;19;20377;-89
2023/05/12 01:53:14;;;;;;;30.48;10.90;;;;;;;11.98;100.00;99517.19;12214143;19;20014;-90
2023/05/12 02:01:54;;;;;;;28.58;11.43;;;;;;;11.98;100.00;99522.72;12199861;19;19999;-89
2023/05/12 02:06:06;;;;;;;38.90;13.20;;;;;;;11.95;100.00;99524.09;12216232;19;20357;-90
2023/05/12 02:10:11;;;;;;;31.80;13.10;;;;;;;11.93;100.00;99526.31;12198732;19;20693;-90
2023/05/12 02:14:20;;;;;;;27.10;11.15;;;;;;;11.94;100.00;99529.88;12212985;19;20010;-90
2023/05/12 02:18:32;;;;;;;35.83;12.43;;;;;;;11.91;100.00;99534.00;12188854;19;20074;-90
2023/05/12 02:22:39;;;;;;;27.27;11.43;;;;;;;11.92;100.00;99532.06;12216532;19;20739;-89
2023/05/12 02:26:49;;;;;;;31.83;12.32;;;;;;;11.91;100.00;99530.41;12210203;19;20017;-90
2023/05/12 02:30:54;;;;;;;33.00;11.80;;;;;;;11.92;100.00;99530.13;12204764;19;20028;-89
2023/05/12 02:34:58;;;;;;;34.42;12.95;;;;;;;11.94;100.00;99538.19;12219248;19;20032;-89
2023/05/12 02:39:13;;;;;;;29.40;11.43;;;;;;;11.94;100.00;99529.88;12215607;19;20011;-91
2023/05/12 02:43:22;;;;;;;30.13;10.98;;;;;;;11.93;100.00;99536.50;12190006;19;20006;-90
2023/05/12 02:47:31;;;;;;;26.08;10.50;;;;;;;11.91;100.00;99527.66;12230841;19;19998;-90
2023/05/12 02:51:39;;;;;;;24.58;10.00;;;;;;;11.88;100.00;99536.47;12206808;19;20372;-89
2023/05/12 02:55:50;;;;;;;28.88;10.77;;;;;;;11.88;100.00;99531.78;12223275;19;20014;-89
2023/05/12 02:59:58;;;;;;;26.63;10.60;;;;;;;11.86;100.00;99526.50;12225647;19;20011;-90
2023/05/12 03:04:10;;;;;;;29.02;12.45;;;;;;;11.83;100.00;99531.72;12204932;19;20038;-89
2023/05/12 03:08:12;;;;;;;29.90;12.32;;;;;;;11.81;100.00;99531.16;12226815;19;20010;-89
2023/05/12 03:12:28;;;;;;;28.60;11.90;;;;;;;11.82;100.00;99528.13;12208942;19;20006;-89
2023/05/12 03:16:37;;;;;;;27.55;10.35;;;;;;;11.79;100.00;99525.88;12226587;19;20013;-90
2023/05/12 03:20:45;;;;;;;25.17;9.07;;;;;;;11.76;100.00;99523.66;12225850;19;20736;-89
2023/05/12 03:24:55;;;;;;;13.50;6.15;;;;;;;11.76;100.00;99529.19;12196221;19;20452;-89
2023/05/12 03:28:59;;;;;;;13.23;6.40;;;;;;;11.73;100.00;99526.94;12220170;19;20021;-88
2023/05/12 03:33:23;;;;;;;12.55;4.93;;;;;;;11.73;100.00;99532.47;12217003;19;20039;-87
2023/05/12 03:37:37;;;;;;;9.73;4.28;;;;;;;11.75;100.00;99522.00;12197327;19;20006;-88
2023/05/12 03:41:45;;;;;;;9.57;4.18;;;;;;;11.77;100.00;99524.47;12220456;19;20050;-88
2023/05/12 03:45:49;;;;;;;8.82;3.88;;;;;;;11.77;100.00;99528.06;12194104;19;20023;-88
2023/05/12 03:49:58;;;;;;;7.82;4.10;;;;;;;11.76;100.00;99523.66;12214958;19;20010;-87
2023/05/12 03:54:02;;;;;;;10.43;5.20;;;;;;;11.75;100.00;99523.91;12210787;19;20496;-89
2023/05/12 03:58:10;;;;;;;10.45;5.63;;;;;;;11.72;100.00;99519.78;12195819;19;20014;-88
2023/05/12 04:02:13;;;;;;;12.43;5.95;;;;;;;11.72;100.00;99524.44;12217407;19;20006;-89
2023/05/12 04:06:19;;;;;;;11.13;7.20;;;;;;;11.73;100.00;99528.88;12219166;19;20082;-89
2023/05/12 04:10:25;;;;;;;15.90;7.05;;;;;;;11.71;100.00;99526.38;12197781;19;20015;-90
2023/05/12 04:14:28;;;;;;;16.73;6.68;;;;;;;11.69;100.00;99534.09;12215798;19;20471;-89
2023/05/12 04:18:48;;;;;;;13.70;7.03;;;;;;;11.69;100.00;99528.59;12194250;19;20372;-88
2023/05/12 04:22:52;;;;;;;13.68;7.65;;;;;;;11.71;100.00;99529.13;12212213;19;20820;-89
2023/05/12 04:27:01;;;;;;;18.58;7.55;;;;;;;11.72;100.00;99538.25;12213921;19;20006;-89
2023/05/12 04:31:14;;;;;;;15.73;7.63;;;;;;;11.73;100.00;99540.75;12192740;19;20025;-88
2023/05/12 04:35:20;;;;;;;12.90;7.63;;;;;;;11.75;100.00;99546.84;12213447;19;20081;-88
2023/05/12 04:39:30;;;;;;;13.77;7.65;;;;;;;11.78;100.00;99542.72;12209262;19;20034;-90
2023/05/12 04:43:39;;;;;;;15.52;7.88;;;;;;;11.83;100.00;99548.25;12215603;19;20375;-89
2023/05/12 04:48:11;;;;;;;15.52;8.40;;;;;;;11.83;100.00;99546.34;12216536;19;20042;-89
2023/05/12 04:52:21;;;;;;;15.57;8.63;;;;;;;11.86;100.00;99545.00;12199679;19;20007;-89
2023/05/12 04:56:30;;;;;;;17.52;9.35;;;;;;;11.90;100.00;99553.59;12220499;19;20010;-89
2023/05/12 05:00:34;;;;;;;20.55;8.93;;;;;;;11.93;100.00;99553.91;12190759;19;20119;-88
2023/05/12 05:04:45;;;;;;;15.02;9.00;;;;;;;11.97;100.00;99552.28;12213820;19;20031;-87
2023/05/12 05:08:56;;;;;;;14.07;8.43;;;;;;;12.09;100.00;99560.38;12206411;19;20384;-90
2023/05/12 05:13:02;;;;;;;13.85;7.97;;;;;;;12.20;100.00;99561.28;12189641;19;20038;-84
2023/05/12 05:17:12;;;;;;;14.00;8.30;;;;;;;12.27;100.00;99564.63;12208102;19;20024;-85
2023/05/12 05:21:19;;;;;;;14.57;8.98;;;;;;;12.38;100.00;99573.81;12208866;19;20018;-85
2023/05/12 05:25:22;;;;;;;14.07;8.77;;;;;;;12.52;100.00;99583.25;12183237;19;19999;-85
2023/05/12 05:29:30;;;;;;;13.60;8.43;;;;;;;12.62;100.00;99580.56;12203486;19;20786;-85
2023/05/12 05:33:33;;;;;;;13.40;7.85;;;;;;;12.68;100.00;99585.03;12183762;19;20551;-85
2023/05/12 05:37:39;;;;;;;14.20;8.30;;;;;;;12.81;100.00;99596.69;12204550;19;20014;-85
2023/05/12 05:41:46;;;;;;;11.75;7.78;;;;;;;12.92;100.00;99592.88;12205865;19;20018;-86
2023/05/12 05:45:50;;;;;;;13.60;7.82;;;;;;;12.99;100.00;99593.44;12184139;19;20033;-84
2023/05/12 05:50:00;;;;;;;13.93;7.75;;;;;;;13.04;100.00;99600.94;12209231;19;20861;-84
2023/05/12 05:54:11;;;;;;;11.80;7.45;;;;;;;13.10;100.00;99594.31;12225119;19;20019;-86
2023/05/12 05:58:17;;;;;;;12.88;7.70;;;;;;;13.13;100.00;99610.38;12194117;19;20023;-84
2023/05/12 06:02:22;;;;;;;14.15;8.43;;;;;;;13.10;100.00;99599.84;12205761;19;20010;-84
2023/05/12 06:06:33;;;;;;;14.48;9.18;;;;;;;13.08;100.00;99597.34;12182412;19;20038;-84
2023/05/12 06:10:43;;;;;;;14.27;8.32;;;;;;;13.17;100.00;99606.78;12208793;19;20010;-84
2023/05/12 06:14:57;;;;;;;18.43;10.00;;;;;;;13.19;100.00;99609.28;12203767;19;20450;-83
2023/05/12 06:19:06;;;;;;;14.70;9.20;;;;;;;13.20;100.00;99610.94;12198703;19;20110;-83
2023/05/12 06:23:26;;;;;;;13.32;8.75;;;;;;;13.19;100.00;99618.41;12229376;19;20014;-82
2023/05/12 06:27:36;;;;;;;11.50;8.43;;;;;;;13.15;100.00;99620.06;12211223;19;20480;-83
2023/05/12 06:31:51;;;;;;;13.13;8.20;;;;;;;13.22;100.00;99620.63;12232617;19;20468;-82
2023/05/12 06:35:58;;;;;;;12.77;8.35;;;;;;;13.38;100.00;99618.75;12228290;19;20503;-82
2023/05/12 06:40:01;;;;;;;13.50;8.38;;;;;;;13.53;100.00;99622.66;12204180;19;20570;-79
2023/05/12 06:44:11;;;;;;;9.90;6.28;;;;;;;13.70;100.00;99637.09;12225960;19;20041;-81
2023/05/12 06:48:17;;;;;;;10.85;7.70;;;;;;;13.83;100.00;99631.03;12230148;19;20010;-80
2023/05/12 06:52:38;;;;;;;11.43;8.35;;;;;;;13.91;100.00;99637.94;12205514;19;20010;-81
2023/05/12 06:56:53;;;;;;;14.35;8.23;;;;;;;14.00;100.00;99638.22;12215431;19;20028;-80
2023/05/12 07:00:59;;;;;;;12.05;9.38;;;;;;;14.03;100.00;99643.22;12175593;19;20011;-80
2023/05/12 07:05:07;;;;;;;14.30;8.80;;;;;;;14.07;100.00;99636.84;12232185;19;20018;-80
2023/05/12 07:09:10;;;;;;;10.65;7.68;;;;;;;14.16;100.00;99647.38;12227005;19;20017;-80
2023/05/12 07:13:16;;;;;;;13.38;7.22;;;;;;;14.24;100.00;99642.09;12211678;19;20022;-80
2023/05/12 07:17:21;;;;;;;9.73;6.72;;;;;;;14.33;100.00;99636.81;12233298;19;20006;-79
2023/05/12 07:21:29;;;;;;;9.35;6.88;;;;;;;14.39;100.00;99635.72;12211472;19;20035;-78
2023/05/12 07:25:38;;;;;;;8.63;6.32;;;;;;;14.43;100.00;99647.91;12232733;19;20514;-79
2023/05/12 07:29:50;;;;;;;11.88;8.38;;;;;;;14.42;100.00;99643.47;12222907;19;20017;-79
2023/05/12 07:33:59;;;;;;;9.80;5.97;;;;;;;14.50;100.00;99651.22;12204172;19;20010;-79
2023/05/12 07:38:11;;;;;;;13.63;7.60;;;;;;;14.51;100.00;99650.13;12230760;19;20014;-78
2023/05/12 07:42:29;;;;;;;11.57;6.50;;;;;;;14.52;100.00;99660.13;12228174;19;20014;-78
2023/05/12 07:46:32;;;;;;;12.43;7.15;;;;;;;14.59;100.00;99657.06;12206760;19;20002;-79
2023/05/12 07:50:53;;;;;;;7.20;5.43;;;;;;;14.61;100.00;99654.84;12230087;19;20011;-79
2023/05/12 07:55:11;;;;;;;9.88;5.65;;;;;;;14.59;100.00;99643.19;12207070;19;20031;-79
2023/05/12 07:59:17;;;;;;;10.43;6.32;;;;;;;14.58;100.00;99656.25;12231053;19;20018;-79
2023/05/12 08:03:31;;;;;;;12.35;6.43;;;;;;;14.57;100.00;99643.50;12219758;19;20011;-79
2023/05/12 08:07:43;;;;;;;8.50;5.75;;;;;;;14.59;100.00;99655.13;12236043;19;20006;-79
2023/05/12 08:11:52;;;;;;;9.68;6.97;;;;;;;14.66;100.00;99654.00;12228543;19;20011;-78
2023/05/12 08:16:09;;;;;;;10.05;6.60;;;;;;;14.85;100.00;99646.75;12210876;19;20028;-78
2023/05/12 08:20:20;;;;;;;7.28;5.43;;;;;;;15.11;100.00;99652.19;12231356;19;20033;-78
2023/05/12 08:24:26;;;;;;;10.75;5.63;;;;;;;15.19;100.00;99651.59;12236304;19;20011;-80
2023/05/12 08:28:31;;;;;;;9.77;5.18;;;;;;;15.23;100.00;99652.72;12218389;19;20002;-79
2023/05/12 08:32:35;;;;;;;15.82;8.32;;;;;;;15.19;100.00;99651.59;12218946;19;20023;-78
2023/05/12 08:36:43;;;;;;;10.98;6.25;;;;;;;15.28;100.00;99661.00;12196269;19;20015;-78
2023/05/12 08:41:18;;;;;;;11.35;6.85;;;;;;;15.49;100.00;99661.72;12213638;19;20010;-78
2023/05/12 08:45:31;;;;;;;7.85;5.70;;;;;;;15.71;100.00;99666.94;12216698;19;20010;-78
2023/05/12 08:49:44;;;;;;;7.50;5.20;;;;;;;15.87;100.00;99660.13;12194491;19;20003;-79
2023/05/12 08:53:54;;;;;;;7.35;5.65;;;;;;;16.17;100.00;99663.81;12215294;19;20003;-79
2023/05/12 08:58:14;;;;;;;9.93;5.47;;;;;;;16.47;100.00;99664.66;12194863;19;20014;-78
2023/05/12 09:02:30;;;;;;;16.15;5.43;;;;;;;16.96;100.00;99666.44;12215350;19;20011;-78
2023/05/12 09:07:00;;;;;;;9.90;4.93;;;;;;;17.28;100.00;99671.31;12197774;19;20014;-79
2023/05/12 09:11:10;;;;;;;11.55;6.28;;;;;;;17.10;100.00;99667.34;12215194;19;20007;-78
2023/05/12 09:15:21;;;;;;;8.93;5.20;;;;;;;16.77;100.00;99671.91;12220664;19;20013;-78
2023/05/12 09:19:33;;;;;;;8.48;5.03;;;;;;;16.59;100.00;99677.03;12194384;19;20091;-79
2023/05/12 09:23:54;;;;;;;7.07;4.70;;;;;;;16.28;100.00;99678.47;12214023;19;20510;-77
2023/05/12 09:27:57;;;;;;;7.75;5.10;;;;;;;16.12;100.00;99677.72;12193752;19;20012;-78
2023/05/12 09:32:03;;;;;;;7.88;4.15;;;;;;;15.88;100.00;99680.41;12216315;19;20604;-78
2023/05/12 09:36:10;;;;;;;9.50;4.40;;;;;;;15.72;100.00;99679.69;12219726;19;20234;-78
2023/05/12 09:40:15;;;;;;;7.35;4.80;;;;;;;15.60;100.00;99679.19;12195010;19;20007;-78
2023/05/12 09:44:28;;;;;;;7.40;4.72;;;;;;;15.53;100.00;99664.75;12214576;19;20007;-78
2023/05/12 09:48:56;;;;;;;13.18;9.18;;;;;;;15.65;100.00;99668.03;12196427;19;20013;-79
2023/05/12 09:53:01;;;;;;;9.88;5.20;;;;;;;16.19;100.00;99669.91;12211470;19;20139;-79
2023/05/12 09:57:11;;;;;;;11.57;4.75;;;;;;;16.99;100.00;99665.84;12213424;19;20014;-80
2023/05/12 10:01:20;;;;;;;6.53;4.50;;;;;;;17.93;100.00;99665.13;12194646;19;20030;-80
2023/05/12 10:05:31;;;;;;;;;;;;;;;18.73;100.00;99660.44;12217468;19;20016;-81
2023/05/12 10:09:45;;;;;;;8.35;4.28;;;;;;;19.46;100.00;99665.16;12193686;19;19928;-82
2023/05/12 10:13:58;;;;;;;6.43;4.15;;;;;;;19.40;95.49;99662.78;12215706;19;20068;-80
2023/05/12 10:18:06;;;;;;;6.30;4.03;;;;;;;19.02;96.53;99672.19;12216933;19;20017;-78
2023/05/12 10:22:10;;;;;;;5.75;3.67;;;;;;;18.57;99.58;99665.50;12202574;19;20010;-78
2023/05/12 10:26:20;;;;;;;8.07;5.28;;;;;;;18.31;99.72;99668.72;12223893;19;20811;-79
2023/05/12 10:30:38;;;;;;;6.20;4.00;;;;;;;18.01;98.05;99670.03;12222401;19;20499;-81
2023/05/12 10:34:44;;;;;;;5.47;3.85;;;;;;;17.85;100.00;99665.84;12196680;19;20019;-82
2023/05/12 10:38:50;;;;;;;5.68;4.28;;;;;;;18.11;100.00;99674.63;12219143;19;20013;-83
2023/05/12 10:43:00;;;;;;;6.27;3.67;;;;;;;18.23;98.66;99672.19;12193168;19;20018;-79
2023/05/12 10:47:15;;;;;;;7.78;4.03;;;;;;;18.02;100.00;99668.91;12213881;19;20259;-77
2023/05/12 10:51:28;;;;;;;4.80;3.72;;;;;;;17.98;98.67;99670.66;12213522;19;20011;-78
2023/05/12 10:55:42;;;;;;;6.88;4.40;;;;;;;17.81;99.13;99667.56;12188998;19;20058;-78
2023/05/12 11:00:12;;;;;;;8.50;4.30;;;;;;;17.37;100.00;99677.03;12212406;19;20347;-79
2023/05/12 11:04:43;;;;;;;6.88;3.95;;;;;;;16.84;100.00;99675.19;12187688;19;20006;-80
2023/05/12 11:09:01;;;;;;;7.25;4.43;;;;;;;16.44;100.00;99681.94;12224037;19;20356;-81
2023/05/12 11:13:17;;;;;;;5.43;4.53;;;;;;;16.15;100.00;99678.00;12204463;19;20022;-80
2023/05/12 11:17:39;;;;;;;7.75;4.10;;;;;;;15.80;100.00;99678.25;12225750;19;20015;-79
2023/05/12 11:21:54;;;;;;;;;;;;;;;15.63;100.00;99684.16;12200565;19;20020;-79
2023/05/12 11:26:03;;;;;;;8.05;3.92;;;;;;;15.57;100.00;99685.31;12221132;19;20337;-79
2023/05/12 11:30:10;;;;;;;6.43;4.50;;;;;;;15.44;100.00;99692.31;12223240;19;20011;-78
2023/05/12 11:34:23;;;;;;;6.40;3.83;;;;;;;15.28;100.00;99688.75;12198457;19;20466;-79
2023/05/12 11:38:27;;;;;;;6.47;4.20;;;;;;;15.20;100.00;99687.41;12219287;19;20347;-79
2023/05/12 11:42:33;;;;;;;5.22;3.65;;;;;;;15.22;100.00;99685.16;12196799;19;20007;-79
2023/05/12 11:46:40;;;;;;;8.32;4.10;;;;;;;15.33;100.00;99690.69;12225269;19;20026;-79
2023/05/12 11:50:47;;;;;;;6.50;4.40;;;;;;;15.52;100.00;99686.16;12222783;19;20481;-79
2023/05/12 11:55:04;;;;;;;5.28;4.13;;;;;;;15.83;100.00;99675.72;12189743;19;20878;-79
2023/05/12 11:59:08;;;;;;;7.13;4.30;;;;;;;16.00;100.00;99685.59;12218295;19;20011;-79
2023/05/12 12:03:14;;;;;;;5.05;3.67;;;;;;;16.28;100.00;99679.28;12220422;19;20018;-80
2023/05/12 12:07:32;;;;;;;9.70;4.00;;;;;;;16.82;100.00;99685.75;12201553;19;20010;-82
2023/05/12 12:11:55;;;;;;;8.27;4.57;;;;;;;17.45;100.00;99691.13;12222145;19;20468;-81
2023/05/12 12:16:00;;;;;;;6.18;4.07;;;;;;;17.77;100.00;99697.97;12196688;19;20015;-81
2023/05/12 12:20:17;;;;;;;6.65;3.80;;;;;;;17.99;100.00;99697.38;12224346;19;20021;-80
2023/05/12 12:24:30;;;;;;;5.38;3.78;;;;;;;17.96;100.00;99693.25;12218957;19;20014;-80
2023/05/12 12:28:44;;;;;;;5.13;2.55;;;;;;;17.56;100.00;99713.31;12193229;19;20561;-79
2023/05/12 12:32:54;;;;;;;4.57;2.45;;;;;;;17.13;100.00;99711.28;12219632;19;20007;-81
2023/05/12 12:37:06;;;;;;;6.60;2.60;;;;;;;16.95;100.00;99707.31;12198181;19;20362;-80
2023/05/12 12:41:13;;;;;;;9.52;1.92;;;;;;;17.19;100.00;99709.28;12219241;19;20467;-80
2023/05/12 12:45:19;;;;;;;6.05;1.77;;;;;;;17.70;97.96;99709.50;12216728;19;20006;-81
2023/05/12 12:49:29;;;;;;;4.57;2.28;;;;;;;18.08;92.95;99709.50;12194297;19;20035;-80
2023/05/12 12:53:44;;;;;;;3.47;2.10;;;;;;;17.94;92.39;99712.25;12215100;19;20400;-80
2023/05/12 12:57:53;;;;;;;2.92;1.65;;;;;;;17.57;96.26;99724.13;12196731;19;20018;-81
2023/05/12 13:02:01;;;;;;;3.38;1.88;;;;;;;17.16;97.14;99724.63;12212275;19;20053;-82
2023/05/12 13:06:09;;;;;;;4.22;2.22;;;;;;;16.74;99.52;99723.38;12220687;19;20017;-80
2023/05/12 13:10:19;;;;;;;3.58;2.20;;;;;;;16.51;100.00;99735.25;12197008;19;20494;-80
2023/05/12 13:14:24;;;;;;;2.97;1.77;;;;;;;16.44;100.00;99726.44;12217394;19;20010;-81
2023/05/12 13:18:34;;;;;;;3.85;2.40;;;;;;;16.55;100.00;99725.22;12199381;19;20482;-80
2023/05/12 13:22:44;;;;;;;3.72;1.70;;;;;;;16.74;100.00;99720.59;12217046;19;20010;-80
2023/05/12 13:26:54;;;;;;;3.58;2.35;;;;;;;16.82;100.00;99728.31;12219272;19;20007;-80
2023/05/12 13:31:00;;;;;;;2.80;2.20;;;;;;;16.94;100.00;99725.16;12201871;19;20017;-80
2023/05/12 13:35:15;;;;;;;3.35;1.90;;;;;;;17.10;100.00;99728.59;12221936;19;20006;-80
2023/05/12 13:39:23;;;;;;;;;;;;;;;17.24;100.00;99726.78;12223911;19;20007;-81
2023/05/12 13:43:26;;;;;;;2.97;1.70;;;;;;;17.36;100.00;99723.56;12195819;19;20293;-81
2023/05/12 13:47:36;;;;;;;4.53;1.90;;;;;;;17.60;100.00;99731.91;12223202;19;20007;-80
2023/05/12 13:51:41;;;;;;;4.72;1.83;;;;;;;17.95;99.68;99721.44;12204923;19;20017;-80
2023/05/12 13:55:47;;;;;;;4.82;1.90;;;;;;;18.42;96.01;99720.41;12220151;19;20002;-81
2023/05/12 13:59:53;;;;;;;3.00;2.00;;;;;;;18.80;93.17;99723.16;12218939;19;20010;-80
2023/05/12 14:03:59;;;;;;;2.67;1.98;;;;;;;19.00;91.90;99721.94;12200861;19;20002;-81
2023/05/12 14:08:05;;;;;;;2.67;1.98;;;;;;;19.12;84.26;99722.25;12224072;19;20014;-80
2023/05/12 14:12:10;;;;;;;5.18;1.85;;;;;;;18.99;89.37;99725.88;12226846;19;20514;-81
2023/05/12 14:16:17;;;;;;;2.42;1.83;;;;;;;18.61;85.83;99722.34;12199131;19;20007;-80
2023/05/12 14:20:24;;;;;;;2.20;1.65;;;;;;;18.25;91.23;99719.31;12214226;19;20011;-81
2023/05/12 14:24:31;;;;;;;4.03;2.50;;;;;;;17.94;98.43;99711.41;12196139;19;20007;-79
2023/05/12 14:28:48;;;;;;;3.70;2.00;;;;;;;17.96;100.00;99717.50;12217436;19;20075;-80
2023/05/12 14:32:55;;;;;;;2.80;1.60;;;;;;;18.14;100.00;99718.63;12216628;19;20716;-80
2023/05/12 14:37:02;;;;;;;2.17;1.50;;;;;;;18.35;100.00;99725.56;12194593;19;20007;-80
2023/05/12 14:41:12;;;;;;;2.60;1.83;;;;;;;18.59;100.00;99730.16;12222793;19;20598;-81
2023/05/12 14:45:20;;;;;;;5.50;1.65;;;;;;;18.67;98.25;99727.50;12228132;19;20018;-82
2023/05/12 14:49:24;;;;;;;2.92;1.70;;;;;;;18.89;99.75;99728.88;12207109;19;20021;-81
2023/05/12 14:53:29;;;;;;;6.03;2.70;;;;;;;18.78;98.52;99731.00;12226804;19;20041;-81
2023/05/12 14:57:38;;;;;;;2.85;1.63;;;;;;;18.89;95.84;99728.88;12208704;19;20026;-82
2023/05/12 15:01:41;;;;;;;2.15;1.70;;;;;;;19.03;93.40;99737.25;12225434;19;20015;-82
2023/05/12 15:05:53;;;;;;;3.05;1.85;;;;;;;19.05;90.03;99727.44;12227546;19;20018;-81
2023/05/12 15:10:08;;;;;;;2.75;1.98;;;;;;;19.01;91.70;99742.34;12203948;19;20010;-81
2023/05/12 15:14:11;;;;;;;3.65;1.85;;;;;;;18.88;92.48;99735.56;12223138;19;20010;-81
2023/05/12 15:18:18;;;;;;;2.30;1.58;;;;;;;18.51;94.31;99747.63;12225691;19;20007;-81
2023/05/12 15:22:40;;;;;;;2.30;1.70;;;;;;;18.34;92.76;99740.63;12224292;19;20011;-81
2023/05/12 15:26:47;;;;;;;3.25;1.58;;;;;;;18.32;89.88;99742.06;12256679;19;20014;-80
2023/05/12 15:31:06;;;;;;;2.03;1.42;;;;;;;18.03;88.63;99750.59;12232697;19;20399;-80
2023/05/12 15:35:21;;;;;;;2.60;1.52;;;;;;;17.63;91.61;99748.03;12220868;19;20010;-78
2023/05/12 15:39:32;;;;;;;3.92;1.75;;;;;;;17.50;92.00;99746.78;12220544;19;20018;-79
2023/05/12 15:43:42;;;;;;;2.15;1.50;;;;;;;17.66;87.66;99747.41;12226776;19;20013;-78
2023/05/12 15:47:50;;;;;;;3.78;1.52;;;;;;;17.83;88.43;99751.72;12226896;19;20017;-79
2023/05/12 15:51:57;;;;;;;3.30;1.83;;;;;;;18.08;86.40;99739.34;12202801;19;20471;-79
2023/05/12 15:56:02;;;;;;;1.73;1.42;;;;;;;18.50;85.41;99738.44;12220004;19;20038;-78
2023/05/12 16:00:05;;;;;;;2.35;1.40;;;;;;;18.62;81.60;99741.59;12213867;19;20368;-79
2023/05/12 16:04:19;;;;;;;2.25;1.80;;;;;;;18.41;84.48;99738.31;12196892;19;20158;-79
2023/05/12 16:08:27;;;;;;;3.30;1.60;;;;;;;18.24;81.81;99748.34;12222891;19;20015;-81
2023/05/12 16:12:41;;;;;;;2.78;1.75;;;;;;;18.07;81.26;99751.66;12204471;19;20101;-79
2023/05/12 16:16:50;;;;;;;3.78;2.22;;;;;;;17.80;84.31;99747.56;12220871;19;20039;-80
2023/05/12 16:20:57;;;;;;;3.42;2.00;;;;;;;17.50;83.09;99743.19;12225993;19;20009;-80
2023/05/12 16:25:01;;;;;;;2.70;1.75;;;;;;;17.44;84.70;99739.63;12199829;19;20010;-81
2023/05/12 16:29:28;;;;;;;2.97;1.70;;;;;;;17.49;85.34;99744.28;12224712;19;20469;-81
2023/05/12 16:33:40;;;;;;;3.28;1.88;;;;;;;17.51;84.23;99742.03;12200144;19;20011;-80
2023/05/12 16:37:47;;;;;;;2.63;1.75;;;;;;;17.52;83.67;99752.09;12217827;19;20070;-80
2023/05/12 16:42:02;;;;;;;2.72;1.77;;;;;;;17.48;82.27;99746.25;12217988;19;20010;-80
2023/05/12 16:46:10;;;;;;;3.03;1.60;;;;;;;17.61;83.23;99747.50;12199498;19;20003;-80
2023/05/12 16:50:18;;;;;;;4.47;1.75;;;;;;;17.62;84.16;99757.50;12223075;19;20414;-79
2023/05/12 16:54:23;;;;;;;4.55;2.00;;;;;;;17.49;83.75;99761.00;12219949;19;20493;-79
2023/05/12 16:58:33;;;;;;;4.03;1.85;;;;;;;17.19;84.63;99763.03;12200779;19;20019;-78
2023/05/12 17:02:48;;;;;;;2.40;1.50;;;;;;;17.02;84.71;99762.66;12216469;19;20018;-80
2023/05/12 17:07:09;;;;;;;4.82;1.85;;;;;;;16.98;86.24;99769.91;12197919;19;20011;-78
2023/05/12 17:11:18;;;;;;;4.55;3.05;;;;;;;16.89;86.71;99777.25;12218855;19;20011;-81
2023/05/12 17:15:26;;;;;;;3.28;2.10;;;;;;;16.78;87.11;99782.91;12211968;19;20078;-79
2023/05/12 17:19:33;;;;;;;4.10;1.90;;;;;;;16.71;88.84;99790.72;12191716;19;20467;-79
2023/05/12 17:23:37;;;;;;;4.82;1.90;;;;;;;16.66;88.95;99784.38;12211922;19;20024;-79
2023/05/12 17:27:45;;;;;;;3.70;2.08;;;;;;;16.56;89.52;99783.34;12197927;19;20007;-80
2023/05/12 17:31:53;;;;;;;2.55;1.70;;;;;;;16.45;90.01;99789.25;12219936;19;20011;-79
2023/05/12 17:36:05;;;;;;;4.93;1.90;;;;;;;16.39;91.09;99791.28;12217928;19;20495;-80
2023/05/12 17:40:16;;;;;;;3.38;2.15;;;;;;;16.30;91.69;99788.28;12196304;19;20003;-80
2023/05/12 17:44:26;;;;;;;3.83;2.35;;;;;;;16.22;93.24;99791.66;12216817;19;20007;-80
2023/05/12 17:48:35;;;;;;;2.75;1.90;;;;;;;16.16;96.38;99787.25;12192636;19;20002;-80
2023/05/12 17:52:43;;;;;;;7.72;2.15;;;;;;;16.08;96.05;99785.06;12213770;19;20064;-79
2023/05/12 17:56:50;;;;;;;5.35;2.38;;;;;;;16.02;96.24;99791.78;12217237;19;20006;-80
2023/05/12 18:00:54;;;;;;;4.30;1.90;;;;;;;15.90;96.84;99795.72;12194119;19;20010;-79
2023/05/12 18:05:09;;;;;;;5.30;2.00;;;;;;;15.83;96.45;99783.25;12214162;19;20011;-79
2023/05/12 18:09:12;;;;;;;3.25;1.92;;;;;;;15.73;95.60;99786.91;12218444;19;20006;-78
2023/05/12 18:13:17;;;;;;;4.90;2.70;;;;;;;15.64;97.47;99796.91;12194472;19;20010;-79
2023/05/12 18:17:22;;;;;;;3.13;2.05;;;;;;;15.51;97.51;99803.91;12215458;19;20391;-80
2023/05/12 18:21:35;;;;;;;7.68;2.55;;;;;;;15.40;100.00;99800.31;12190904;19;20054;-79
2023/05/12 18:25:42;;;;;;;3.03;1.88;;;;;;;15.28;100.00;99803.41;12212344;19;20492;-79
2023/05/12 18:29:55;;;;;;;6.20;2.70;;;;;;;15.20;100.00;99800.38;12207785;19;20011;-79
2023/05/12 18:34:02;;;;;;;5.35;2.30;;;;;;;15.09;100.00;99802.34;12190006;19;20090;-79
2023/05/12 18:38:08;;;;;;;4.97;2.25;;;;;;;14.96;100.00;99811.22;12215716;19;20503;-79
2023/05/12 18:42:12;;;;;;;3.78;2.50;;;;;;;14.81;100.00;99821.25;12212619;19;20011;-81
2023/05/12 18:46:21;;;;;;;2.97;2.10;;;;;;;14.70;100.00;99825.13;12183109;19;20014;-79
2023/05/12 18:50:29;;;;;;;4.05;2.10;;;;;;;14.60;100.00;99830.66;12212589;19;20018;-79
2023/05/12 18:54:36;;;;;;;5.13;2.22;;;;;;;14.50;100.00;99837.00;12189740;19;20006;-79
2023/05/12 18:58:42;;;;;;;5.30;2.78;;;;;;;14.39;100.00;99843.63;12209723;19;20003;-80
2023/05/12 19:02:46;;;;;;;6.07;3.20;;;;;;;14.29;100.00;99852.75;12207781;19;20476;-80
2023/05/12 19:07:01;;;;;;;5.97;2.60;;;;;;;14.22;100.00;99862.41;12190470;19;20035;-79
2023/05/12 19:11:07;;;;;;;4.57;2.40;;;;;;;14.11;100.00;99869.88;12210659;19;20594;-80